UAL280 KDEN-PANC
Flight info
| Callsign | UAL280 |
|---|---|
| Flight time | N/A |
| Altitude | 34000 |
| Route | DDRTH1 DDRTH DLN/N0451F360 FINUT YVR YZT KATCH B453 MDO WITTI5 |
| Aircraft | B38M/M-SDE1FGHILORVWXY/HB1 |
Departure
| Time | 2026-05-04 14:14 |
|---|---|
| Airport | Denver International Airport (KDEN) |
Arrival
| Time | N/A |
|---|---|
| Airport | Ted Stevens Anchorage International Airport (PANC) |
| Time | Latitude | Longitude | Altitude | Speed | Heading |
|---|---|---|---|---|---|
| 2026-05-04 13:52 | 39.85936 | -104.66913 | 5382 ft | 0 kts | 180° |
| 2026-05-04 14:03 | 39.85955 | -104.66913 | 5381 ft | 4 kts | 183° |
| 2026-05-04 14:04 | 39.86003 | -104.66915 | 5380 ft | 4 kts | 143° |
| 2026-05-04 14:04 | 39.86011 | -104.66941 | 5381 ft | 4 kts | 87° |
| 2026-05-04 14:04 | 39.86009 | -104.66975 | 5377 ft | 4 kts | 88° |
| 2026-05-04 14:05 | 39.86009 | -104.66982 | 5377 ft | 0 kts | 90° |
| 2026-05-04 14:07 | 39.86009 | -104.66963 | 5379 ft | 4 kts | 82° |
| 2026-05-04 14:08 | 39.86024 | -104.66929 | 5379 ft | 5 kts | 48° |
| 2026-05-04 14:08 | 39.86050 | -104.66895 | 5381 ft | 6 kts | 52° |
| 2026-05-04 14:08 | 39.86060 | -104.66844 | 5381 ft | 6 kts | 88° |
| 2026-05-04 14:08 | 39.86060 | -104.66790 | 5381 ft | 6 kts | 90° |
| 2026-05-04 14:09 | 39.86059 | -104.66684 | 5381 ft | 6 kts | 90° |
| 2026-05-04 14:09 | 39.86059 | -104.66631 | 5381 ft | 6 kts | 90° |
| 2026-05-04 14:10 | 39.86021 | -104.66517 | 5379 ft | 6 kts | 108° |
| 2026-05-04 14:10 | 39.86017 | -104.66470 | 5384 ft | 4 kts | 90° |
| 2026-05-04 14:10 | 39.86017 | -104.66442 | 5384 ft | 2 kts | 90° |
| 2026-05-04 14:10 | 39.86017 | -104.66413 | 5385 ft | 5 kts | 91° |
| 2026-05-04 14:11 | 39.86016 | -104.66356 | 5387 ft | 8 kts | 91° |
| 2026-05-04 14:11 | 39.86032 | -104.66244 | 5389 ft | 5 kts | 41° |
| 2026-05-04 14:11 | 39.86065 | -104.66230 | 5388 ft | 6 kts | 10° |
| 2026-05-04 14:12 | 39.86097 | -104.66200 | 5384 ft | 6 kts | 61° |
| 2026-05-04 14:12 | 39.86106 | -104.66145 | 5388 ft | 6 kts | 88° |
| 2026-05-04 14:12 | 39.86095 | -104.66036 | 5388 ft | 5 kts | 128° |
| 2026-05-04 14:13 | 39.86067 | -104.66018 | 5388 ft | 3 kts | 168° |
| 2026-05-04 14:13 | 39.86053 | -104.66017 | 5389 ft | 0 kts | 180° |
| 2026-05-04 14:13 | 39.85906 | -104.66020 | 5392 ft | 51 kts | 180° |
| 2026-05-04 14:14 | 39.85348 | -104.66026 | 5397 ft | 108 kts | 180° |
| 2026-05-04 14:14 | 39.83233 | -104.66080 | 5562 ft | 181 kts | 184° |
| 2026-05-04 14:14 | 39.81955 | -104.66138 | 6178 ft | 188 kts | 184° |
| 2026-05-04 14:15 | 39.79134 | -104.66222 | 7145 ft | 207 kts | 184° |
| 2026-05-04 14:15 | 39.76706 | -104.67775 | 7891 ft | 210 kts | 243° |
| 2026-05-04 14:16 | 39.77034 | -104.71349 | 8522 ft | 219 kts | 313° |
| 2026-05-04 14:16 | 39.78325 | -104.72426 | 8894 ft | 225 kts | 339° |
| 2026-05-04 14:17 | 39.81352 | -104.73504 | 9794 ft | 232 kts | 343° |
| 2026-05-04 14:17 | 39.82977 | -104.74054 | 9963 ft | 249 kts | 343° |
| 2026-05-04 14:17 | 39.86518 | -104.75282 | 10537 ft | 275 kts | 343° |
| 2026-05-04 14:18 | 39.88434 | -104.75946 | 10694 ft | 294 kts | 343° |
| 2026-05-04 14:18 | 39.92632 | -104.77399 | 11013 ft | 327 kts | 343° |
| 2026-05-04 14:19 | 39.97125 | -104.78955 | 11965 ft | 336 kts | 343° |
| 2026-05-04 14:19 | 39.99366 | -104.79732 | 12555 ft | 339 kts | 343° |
| 2026-05-04 14:19 | 40.01681 | -104.80535 | 13176 ft | 341 kts | 343° |
| 2026-05-04 14:19 | 40.03950 | -104.81323 | 13795 ft | 343 kts | 343° |
| 2026-05-04 14:20 | 40.06263 | -104.82127 | 14379 ft | 346 kts | 343° |
| 2026-05-04 14:20 | 40.08598 | -104.82939 | 14964 ft | 349 kts | 343° |
| 2026-05-04 14:20 | 40.10956 | -104.83759 | 15563 ft | 351 kts | 343° |
| 2026-05-04 14:21 | 40.15728 | -104.85422 | 16709 ft | 357 kts | 343° |
| 2026-05-04 14:21 | 40.18138 | -104.86262 | 17261 ft | 360 kts | 343° |
| 2026-05-04 14:21 | 40.20569 | -104.87110 | 17811 ft | 363 kts | 343° |
| 2026-05-04 14:21 | 40.23018 | -104.87966 | 18305 ft | 366 kts | 343° |
| 2026-05-04 14:22 | 40.25454 | -104.88817 | 18757 ft | 368 kts | 343° |
| 2026-05-04 14:22 | 40.27936 | -104.89685 | 19234 ft | 371 kts | 342° |
| 2026-05-04 14:22 | 40.30442 | -104.90562 | 19681 ft | 374 kts | 342° |
| 2026-05-04 14:22 | 40.32962 | -104.91445 | 20146 ft | 376 kts | 342° |
| 2026-05-04 14:23 | 40.38057 | -104.93232 | 21049 ft | 381 kts | 342° |
| 2026-05-04 14:23 | 40.40627 | -104.94134 | 21507 ft | 383 kts | 342° |
| 2026-05-04 14:23 | 40.43214 | -104.95043 | 21926 ft | 386 kts | 341° |
| 2026-05-04 14:24 | 40.45821 | -104.95959 | 22362 ft | 388 kts | 341° |
| 2026-05-04 14:24 | 40.48437 | -104.96880 | 22795 ft | 391 kts | 341° |
| 2026-05-04 14:24 | 40.51070 | -104.97808 | 23221 ft | 393 kts | 341° |
| 2026-05-04 14:24 | 40.53720 | -104.98742 | 23624 ft | 396 kts | 341° |
| 2026-05-04 14:25 | 40.56386 | -104.99683 | 23979 ft | 397 kts | 341° |
| 2026-05-04 14:25 | 40.61729 | -105.01570 | 24676 ft | 401 kts | 340° |
| 2026-05-04 14:25 | 40.64445 | -105.02531 | 25018 ft | 403 kts | 340° |
| 2026-05-04 14:26 | 40.67138 | -105.03484 | 25348 ft | 405 kts | 340° |
| 2026-05-04 14:26 | 40.69874 | -105.04453 | 25663 ft | 408 kts | 340° |
| 2026-05-04 14:26 | 40.72620 | -105.05427 | 25987 ft | 410 kts | 340° |
| 2026-05-04 14:26 | 40.75270 | -105.06736 | 26279 ft | 404 kts | 325° |
| 2026-05-04 14:27 | 40.77465 | -105.08982 | 26565 ft | 398 kts | 310° |
| 2026-05-04 14:27 | 40.79283 | -105.11737 | 26817 ft | 400 kts | 307° |
| 2026-05-04 14:27 | 40.81069 | -105.14565 | 27130 ft | 401 kts | 306° |
| 2026-05-04 14:27 | 40.82836 | -105.17433 | 27452 ft | 403 kts | 306° |
| 2026-05-04 14:28 | 40.84596 | -105.20331 | 27769 ft | 404 kts | 305° |
| 2026-05-04 14:28 | 40.86327 | -105.23209 | 28081 ft | 406 kts | 305° |
| 2026-05-04 14:28 | 40.88087 | -105.26146 | 28384 ft | 408 kts | 305° |
| 2026-05-04 14:28 | 40.89850 | -105.29097 | 28685 ft | 410 kts | 305° |
| 2026-05-04 14:29 | 40.93393 | -105.35037 | 29283 ft | 413 kts | 305° |
| 2026-05-04 14:29 | 40.96965 | -105.41041 | 29837 ft | 417 kts | 305° |
| 2026-05-04 14:30 | 40.98762 | -105.44063 | 30081 ft | 418 kts | 305° |
| 2026-05-04 14:30 | 41.00563 | -105.47097 | 30314 ft | 420 kts | 305° |
| 2026-05-04 14:30 | 41.04165 | -105.53173 | 30911 ft | 420 kts | 305° |
| 2026-05-04 14:31 | 41.05970 | -105.56222 | 31244 ft | 420 kts | 305° |
| 2026-05-04 14:31 | 41.09566 | -105.62307 | 31845 ft | 419 kts | 305° |
| 2026-05-04 14:32 | 41.13144 | -105.68372 | 32406 ft | 419 kts | 305° |
| 2026-05-04 14:32 | 41.14939 | -105.71420 | 32680 ft | 419 kts | 305° |
| 2026-05-04 14:32 | 41.16736 | -105.74474 | 32961 ft | 419 kts | 305° |
| 2026-05-04 14:32 | 41.18544 | -105.77550 | 33203 ft | 420 kts | 305° |
| 2026-05-04 14:33 | 41.20342 | -105.80610 | 33442 ft | 420 kts | 306° |
| 2026-05-04 14:33 | 41.22145 | -105.83684 | 33654 ft | 421 kts | 306° |
| 2026-05-04 14:33 | 41.23945 | -105.86755 | 33857 ft | 422 kts | 306° |
| 2026-05-04 14:34 | 41.27549 | -105.92916 | 33901 ft | 422 kts | 306° |
| 2026-05-04 14:34 | 41.31133 | -105.99053 | 33867 ft | 422 kts | 306° |
| 2026-05-04 14:35 | 41.34736 | -106.05234 | 33833 ft | 423 kts | 306° |
| 2026-05-04 14:35 | 41.38347 | -106.11442 | 33800 ft | 424 kts | 306° |
| 2026-05-04 14:36 | 41.41955 | -106.17656 | 33793 ft | 424 kts | 306° |
| 2026-05-04 14:36 | 41.45571 | -106.23877 | 33785 ft | 424 kts | 308° |
| 2026-05-04 14:37 | 41.49505 | -106.29691 | 33786 ft | 425 kts | 310° |
| 2026-05-04 14:37 | 41.53448 | -106.35583 | 33791 ft | 425 kts | 309° |
| 2026-05-04 14:38 | 41.57374 | -106.41487 | 33814 ft | 424 kts | 309° |
| 2026-05-04 14:38 | 41.61269 | -106.47357 | 33825 ft | 424 kts | 309° |
| 2026-05-04 14:39 | 41.65192 | -106.53281 | 33838 ft | 424 kts | 309° |
| 2026-05-04 14:39 | 41.69096 | -106.59189 | 33845 ft | 424 kts | 309° |
| 2026-05-04 14:40 | 41.74925 | -106.68030 | 33831 ft | 423 kts | 309° |
| 2026-05-04 14:40 | 41.78819 | -106.73953 | 33811 ft | 423 kts | 309° |
| 2026-05-04 14:41 | 41.82701 | -106.79868 | 33844 ft | 422 kts | 309° |
| 2026-05-04 14:42 | 41.90432 | -106.91683 | 33895 ft | 422 kts | 309° |
| 2026-05-04 14:42 | 41.94302 | -106.97616 | 33901 ft | 422 kts | 309° |
| 2026-05-04 14:43 | 41.98165 | -107.03549 | 33902 ft | 421 kts | 309° |
| 2026-05-04 14:43 | 42.01371 | -107.08483 | 33896 ft | 421 kts | 309° |
| 2026-05-04 14:44 | 42.05881 | -107.15436 | 33877 ft | 422 kts | 309° |
| 2026-05-04 14:44 | 42.09094 | -107.20400 | 33858 ft | 422 kts | 309° |
| 2026-05-04 14:45 | 42.12949 | -107.26367 | 33833 ft | 422 kts | 309° |
| 2026-05-04 14:45 | 42.16798 | -107.32337 | 33807 ft | 422 kts | 309° |
| 2026-05-04 14:46 | 42.20649 | -107.38323 | 33807 ft | 422 kts | 309° |
| 2026-05-04 14:46 | 42.24485 | -107.44296 | 33804 ft | 423 kts | 309° |
| 2026-05-04 14:47 | 42.28333 | -107.50300 | 33804 ft | 423 kts | 309° |
| 2026-05-04 14:47 | 42.32186 | -107.56325 | 33795 ft | 424 kts | 309° |
| 2026-05-04 14:48 | 42.36034 | -107.62354 | 33796 ft | 424 kts | 309° |
| 2026-05-04 14:48 | 42.39889 | -107.68406 | 33793 ft | 424 kts | 309° |
| 2026-05-04 14:49 | 42.43742 | -107.74468 | 33787 ft | 425 kts | 309° |
| 2026-05-04 14:49 | 42.47601 | -107.80552 | 33785 ft | 426 kts | 309° |
| 2026-05-04 14:50 | 42.51465 | -107.86656 | 33787 ft | 427 kts | 309° |
| 2026-05-04 14:50 | 42.55308 | -107.92740 | 33786 ft | 427 kts | 309° |
| 2026-05-04 14:51 | 42.59187 | -107.98893 | 33782 ft | 428 kts | 309° |
| 2026-05-04 14:51 | 42.63056 | -108.05043 | 33782 ft | 429 kts | 309° |
| 2026-05-04 14:52 | 42.66933 | -108.11220 | 33786 ft | 430 kts | 309° |
| 2026-05-04 14:52 | 42.70813 | -108.17414 | 33787 ft | 430 kts | 309° |
| 2026-05-04 14:53 | 42.74694 | -108.23623 | 33791 ft | 431 kts | 309° |
| 2026-05-04 14:53 | 42.78542 | -108.29792 | 33820 ft | 431 kts | 309° |
| 2026-05-04 14:54 | 42.82418 | -108.36018 | 33848 ft | 431 kts | 309° |
| 2026-05-04 14:54 | 42.86291 | -108.42254 | 33875 ft | 431 kts | 309° |
| 2026-05-04 14:55 | 42.90165 | -108.48503 | 33895 ft | 431 kts | 309° |
| 2026-05-04 14:55 | 42.94039 | -108.54768 | 33907 ft | 431 kts | 309° |
| 2026-05-04 14:56 | 42.97903 | -108.61029 | 33910 ft | 431 kts | 309° |
| 2026-05-04 14:56 | 43.01767 | -108.67302 | 33894 ft | 431 kts | 309° |
| 2026-05-04 14:57 | 43.05632 | -108.73592 | 33877 ft | 431 kts | 309° |
| 2026-05-04 14:57 | 43.09491 | -108.79885 | 33853 ft | 432 kts | 309° |
| 2026-05-04 14:58 | 43.13347 | -108.86186 | 33828 ft | 432 kts | 309° |
| 2026-05-04 14:58 | 43.17203 | -108.92501 | 33804 ft | 432 kts | 309° |
| 2026-05-04 14:59 | 43.21023 | -108.98772 | 33806 ft | 431 kts | 309° |
| 2026-05-04 15:00 | 43.26794 | -109.08270 | 33818 ft | 432 kts | 309° |
| 2026-05-04 15:00 | 43.30632 | -109.14602 | 33819 ft | 431 kts | 309° |
| 2026-05-04 15:01 | 43.36385 | -109.24122 | 33827 ft | 431 kts | 309° |
| 2026-05-04 15:01 | 43.40207 | -109.30464 | 33856 ft | 431 kts | 309° |
| 2026-05-04 15:02 | 43.44005 | -109.36779 | 33893 ft | 430 kts | 309° |
| 2026-05-04 15:02 | 43.47817 | -109.43133 | 33922 ft | 430 kts | 309° |
| 2026-05-04 15:03 | 43.51627 | -109.49495 | 33952 ft | 430 kts | 309° |
| 2026-05-04 15:03 | 43.55429 | -109.55860 | 33979 ft | 430 kts | 309° |
| 2026-05-04 15:04 | 43.59232 | -109.62238 | 33982 ft | 430 kts | 309° |
| 2026-05-04 15:04 | 43.63027 | -109.68618 | 33978 ft | 430 kts | 309° |
| 2026-05-04 15:05 | 43.66819 | -109.75007 | 33969 ft | 430 kts | 309° |
| 2026-05-04 15:05 | 43.70582 | -109.81362 | 33950 ft | 430 kts | 309° |
| 2026-05-04 15:06 | 43.74361 | -109.87758 | 33934 ft | 429 kts | 309° |
| 2026-05-04 15:07 | 43.80029 | -109.97374 | 33921 ft | 429 kts | 309° |
| 2026-05-04 15:07 | 43.83803 | -110.03797 | 33919 ft | 429 kts | 309° |
| 2026-05-04 15:08 | 43.87568 | -110.10218 | 33927 ft | 429 kts | 309° |
| 2026-05-04 15:08 | 43.91334 | -110.16654 | 33938 ft | 429 kts | 309° |
| 2026-05-04 15:09 | 43.95064 | -110.23044 | 33941 ft | 429 kts | 309° |
| 2026-05-04 15:09 | 43.98811 | -110.29477 | 33944 ft | 428 kts | 309° |
| 2026-05-04 15:10 | 44.04419 | -110.39133 | 33950 ft | 427 kts | 308° |
| 2026-05-04 15:11 | 44.10018 | -110.48803 | 33954 ft | 427 kts | 308° |
| 2026-05-04 15:11 | 44.13736 | -110.55244 | 33955 ft | 427 kts | 308° |
| 2026-05-04 15:12 | 44.17420 | -110.61640 | 33949 ft | 426 kts | 308° |
| 2026-05-04 15:12 | 44.21131 | -110.68097 | 33936 ft | 426 kts | 308° |
| 2026-05-04 15:13 | 44.24832 | -110.74551 | 33927 ft | 425 kts | 308° |
| 2026-05-04 15:13 | 44.28525 | -110.81004 | 33923 ft | 425 kts | 308° |
| 2026-05-04 15:14 | 44.32189 | -110.87422 | 33914 ft | 424 kts | 308° |
| 2026-05-04 15:14 | 44.35863 | -110.93873 | 33910 ft | 423 kts | 308° |
| 2026-05-04 15:15 | 44.39529 | -111.00323 | 33921 ft | 423 kts | 308° |
| 2026-05-04 15:15 | 44.43181 | -111.06763 | 33946 ft | 422 kts | 308° |
| 2026-05-04 15:16 | 44.48631 | -111.16402 | 33965 ft | 420 kts | 308° |
| 2026-05-04 15:17 | 44.54041 | -111.25999 | 33981 ft | 419 kts | 308° |
| 2026-05-04 15:17 | 44.59448 | -111.35627 | 33965 ft | 417 kts | 309° |
| 2026-05-04 15:18 | 44.63018 | -111.42000 | 33949 ft | 416 kts | 309° |
| 2026-05-04 15:19 | 44.68368 | -111.51576 | 33921 ft | 415 kts | 309° |
| 2026-05-04 15:19 | 44.73707 | -111.61168 | 33884 ft | 415 kts | 309° |
| 2026-05-04 15:20 | 44.77271 | -111.67586 | 33887 ft | 415 kts | 309° |
| 2026-05-04 15:20 | 44.80801 | -111.73960 | 33888 ft | 415 kts | 309° |
| 2026-05-04 15:21 | 44.84354 | -111.80389 | 33896 ft | 415 kts | 309° |
| 2026-05-04 15:22 | 44.89679 | -111.90048 | 33912 ft | 416 kts | 309° |
| 2026-05-04 15:22 | 44.94967 | -111.99670 | 33915 ft | 417 kts | 309° |
| 2026-05-04 15:23 | 44.98519 | -112.06149 | 33927 ft | 417 kts | 308° |
| 2026-05-04 15:23 | 45.02072 | -112.12646 | 33918 ft | 417 kts | 308° |
| 2026-05-04 15:24 | 45.09150 | -112.25630 | 33954 ft | 418 kts | 308° |
| 2026-05-04 15:25 | 45.12690 | -112.32145 | 33977 ft | 417 kts | 308° |
| 2026-05-04 15:26 | 45.18001 | -112.41947 | 34011 ft | 417 kts | 308° |
| 2026-05-04 15:26 | 45.23298 | -112.51757 | 34017 ft | 417 kts | 308° |
| 2026-05-04 15:27 | 45.27628 | -112.62433 | 34008 ft | 419 kts | 299° |
| 2026-05-04 15:28 | 45.31594 | -112.73513 | 33997 ft | 419 kts | 299° |
| 2026-05-04 15:29 | 45.35105 | -112.83361 | 33971 ft | 419 kts | 299° |
| 2026-05-04 15:30 | 45.44716 | -113.10510 | 33905 ft | 420 kts | 299° |
| 2026-05-04 15:31 | 45.48624 | -113.21627 | 33914 ft | 420 kts | 299° |
| 2026-05-04 15:32 | 45.54699 | -113.39002 | 33913 ft | 420 kts | 299° |
| 2026-05-04 15:34 | 45.61185 | -113.57679 | 33902 ft | 420 kts | 299° |
| 2026-05-04 15:34 | 45.65064 | -113.68911 | 33898 ft | 420 kts | 299° |
| 2026-05-04 15:35 | 45.68937 | -113.80173 | 33900 ft | 421 kts | 299° |
| 2026-05-04 15:36 | 45.72812 | -113.91490 | 33896 ft | 422 kts | 299° |
| 2026-05-04 15:36 | 45.75395 | -113.99060 | 33891 ft | 423 kts | 299° |
| 2026-05-04 15:37 | 45.77958 | -114.06593 | 33887 ft | 423 kts | 299° |
| 2026-05-04 15:37 | 45.80550 | -114.14232 | 33879 ft | 423 kts | 300° |
| 2026-05-04 15:38 | 45.83108 | -114.21794 | 33891 ft | 424 kts | 300° |
| 2026-05-04 15:38 | 45.85680 | -114.29423 | 33875 ft | 424 kts | 300° |
| 2026-05-04 15:39 | 45.88249 | -114.37057 | 33907 ft | 425 kts | 300° |
| 2026-05-04 15:40 | 45.92096 | -114.48537 | 33908 ft | 425 kts | 300° |
| 2026-05-04 15:40 | 45.94657 | -114.56209 | 33904 ft | 425 kts | 300° |
| 2026-05-04 15:41 | 45.97196 | -114.63834 | 33913 ft | 426 kts | 300° |
| 2026-05-04 15:41 | 45.99750 | -114.71528 | 33910 ft | 426 kts | 300° |
| 2026-05-04 15:42 | 46.02297 | -114.79227 | 33924 ft | 426 kts | 300° |
| 2026-05-04 15:42 | 46.04841 | -114.86935 | 33924 ft | 426 kts | 300° |
| 2026-05-04 15:43 | 46.07385 | -114.94666 | 33914 ft | 427 kts | 300° |
| 2026-05-04 15:43 | 46.09920 | -115.02396 | 33932 ft | 427 kts | 300° |
| 2026-05-04 15:44 | 46.12435 | -115.10085 | 33941 ft | 426 kts | 300° |
| 2026-05-04 15:44 | 46.14962 | -115.17833 | 33923 ft | 426 kts | 300° |
| 2026-05-04 15:45 | 46.17478 | -115.25574 | 33928 ft | 426 kts | 300° |
| 2026-05-04 15:45 | 46.19992 | -115.33328 | 33929 ft | 426 kts | 300° |
| 2026-05-04 15:46 | 46.22501 | -115.41091 | 33933 ft | 427 kts | 299° |
| 2026-05-04 15:46 | 46.25011 | -115.48883 | 33932 ft | 427 kts | 299° |
| 2026-05-04 15:47 | 46.27494 | -115.56612 | 33919 ft | 427 kts | 299° |
| 2026-05-04 15:47 | 46.29993 | -115.64415 | 33912 ft | 427 kts | 299° |
| 2026-05-04 15:48 | 46.32487 | -115.72226 | 33907 ft | 427 kts | 299° |
| 2026-05-04 15:48 | 46.36206 | -115.83920 | 33906 ft | 428 kts | 299° |
| 2026-05-04 15:49 | 46.38692 | -115.91763 | 33894 ft | 427 kts | 299° |
| 2026-05-04 15:49 | 46.41165 | -115.99593 | 33888 ft | 428 kts | 299° |
| 2026-05-04 15:50 | 46.43638 | -116.07446 | 33882 ft | 428 kts | 299° |
| 2026-05-04 15:50 | 46.46107 | -116.15310 | 33887 ft | 428 kts | 299° |
| 2026-05-04 15:51 | 46.48575 | -116.23194 | 33864 ft | 428 kts | 299° |
| 2026-05-04 15:51 | 46.51016 | -116.31018 | 33870 ft | 429 kts | 299° |
| 2026-05-04 15:52 | 46.53473 | -116.38919 | 33863 ft | 429 kts | 299° |
| 2026-05-04 15:52 | 46.55925 | -116.46825 | 33851 ft | 429 kts | 299° |
| 2026-05-04 15:53 | 46.58371 | -116.54739 | 33829 ft | 429 kts | 299° |
| 2026-05-04 15:53 | 46.60815 | -116.62671 | 33836 ft | 430 kts | 299° |
| 2026-05-04 15:54 | 46.63256 | -116.70612 | 33844 ft | 429 kts | 299° |
| 2026-05-04 15:54 | 46.65697 | -116.78571 | 33869 ft | 430 kts | 299° |
| 2026-05-04 15:55 | 46.68114 | -116.86479 | 33886 ft | 430 kts | 299° |
| 2026-05-04 15:55 | 46.70548 | -116.94468 | 33905 ft | 431 kts | 299° |
| 2026-05-04 15:56 | 46.72972 | -117.02448 | 33915 ft | 431 kts | 299° |
| 2026-05-04 15:56 | 46.75539 | -117.10320 | 33918 ft | 425 kts | 307° |
| 2026-05-04 15:57 | 46.78664 | -117.17653 | 33904 ft | 426 kts | 307° |
| 2026-05-04 15:57 | 46.81794 | -117.24994 | 33907 ft | 426 kts | 307° |
| 2026-05-04 15:58 | 46.84920 | -117.32334 | 33897 ft | 425 kts | 307° |
| 2026-05-04 15:58 | 46.88024 | -117.39642 | 33882 ft | 425 kts | 307° |
| 2026-05-04 15:59 | 46.91144 | -117.47007 | 33861 ft | 425 kts | 307° |
| 2026-05-04 15:59 | 46.94253 | -117.54367 | 33845 ft | 425 kts | 307° |
| 2026-05-04 16:00 | 46.97362 | -117.61745 | 33843 ft | 425 kts | 307° |
| 2026-05-04 16:00 | 47.00469 | -117.69140 | 33834 ft | 425 kts | 307° |
| 2026-05-04 16:01 | 47.03568 | -117.76534 | 33832 ft | 425 kts | 307° |
| 2026-05-04 16:01 | 47.06641 | -117.83887 | 33837 ft | 425 kts | 307° |
| 2026-05-04 16:02 | 47.09730 | -117.91297 | 33830 ft | 425 kts | 307° |
| 2026-05-04 16:03 | 47.14359 | -118.02439 | 33830 ft | 426 kts | 307° |
| 2026-05-04 16:03 | 47.17437 | -118.09874 | 33832 ft | 426 kts | 307° |
| 2026-05-04 16:04 | 47.20496 | -118.17282 | 33834 ft | 426 kts | 307° |
| 2026-05-04 16:04 | 47.25110 | -118.28496 | 33834 ft | 427 kts | 307° |
| 2026-05-04 16:05 | 47.28183 | -118.35991 | 33826 ft | 427 kts | 307° |
| 2026-05-04 16:06 | 47.32760 | -118.47191 | 33821 ft | 427 kts | 306° |
| 2026-05-04 16:07 | 47.38878 | -118.62233 | 33836 ft | 428 kts | 306° |
| 2026-05-04 16:08 | 47.44990 | -118.77345 | 33836 ft | 428 kts | 306° |
| 2026-05-04 16:09 | 47.52575 | -118.96217 | 33841 ft | 428 kts | 306° |
| 2026-05-04 16:10 | 47.58640 | -119.11403 | 33847 ft | 428 kts | 306° |
| 2026-05-04 16:11 | 47.64685 | -119.26622 | 33850 ft | 428 kts | 306° |
| 2026-05-04 16:12 | 47.73706 | -119.49499 | 33861 ft | 427 kts | 306° |
| 2026-05-04 16:13 | 47.79676 | -119.64745 | 33870 ft | 428 kts | 306° |
| 2026-05-04 16:14 | 47.85164 | -119.78837 | 33869 ft | 428 kts | 305° |
| 2026-05-04 16:16 | 47.92594 | -119.98036 | 33885 ft | 429 kts | 305° |
| 2026-05-04 16:17 | 48.00016 | -120.17352 | 33899 ft | 429 kts | 305° |
| 2026-05-04 16:18 | 48.05927 | -120.32833 | 33910 ft | 430 kts | 304° |
| 2026-05-04 16:19 | 48.13301 | -120.52278 | 33917 ft | 429 kts | 304° |
| 2026-05-04 16:20 | 48.20506 | -120.71417 | 33925 ft | 428 kts | 304° |
| 2026-05-04 16:22 | 48.27782 | -120.90881 | 33948 ft | 429 kts | 304° |
| 2026-05-04 16:23 | 48.36494 | -121.14380 | 33948 ft | 429 kts | 303° |
| 2026-05-04 16:25 | 48.45125 | -121.37869 | 33961 ft | 427 kts | 303° |
| 2026-05-04 16:26 | 48.55169 | -121.65471 | 33938 ft | 429 kts | 303° |
| 2026-05-04 16:28 | 48.62305 | -121.85261 | 33936 ft | 428 kts | 303° |
| 2026-05-04 16:29 | 48.72234 | -122.13049 | 33916 ft | 430 kts | 303° |
| 2026-05-04 16:31 | 48.79299 | -122.33000 | 33911 ft | 430 kts | 303° |
| 2026-05-04 16:32 | 48.87744 | -122.57049 | 33914 ft | 431 kts | 303° |
| 2026-05-04 16:33 | 48.93378 | -122.73205 | 33867 ft | 432 kts | 303° |
| 2026-05-04 16:34 | 48.97542 | -122.85209 | 33920 ft | 426 kts | 303° |
| 2026-05-04 16:35 | 49.05803 | -123.09183 | 33917 ft | 426 kts | 303° |
| 2026-05-04 16:36 | 49.10264 | -123.20740 | 33914 ft | 422 kts | 308° |
| 2026-05-04 16:37 | 49.14958 | -123.32137 | 33914 ft | 422 kts | 307° |
| 2026-05-04 16:38 | 49.21180 | -123.47372 | 33915 ft | 423 kts | 307° |
| 2026-05-04 16:39 | 49.28945 | -123.66513 | 33924 ft | 423 kts | 307° |
| 2026-05-04 16:40 | 49.34002 | -123.79050 | 33925 ft | 423 kts | 307° |
| 2026-05-04 16:41 | 49.41719 | -123.98301 | 33922 ft | 424 kts | 306° |
| 2026-05-04 16:43 | 49.49396 | -124.17592 | 33923 ft | 424 kts | 306° |
| 2026-05-04 16:43 | 49.53998 | -124.29223 | 33930 ft | 424 kts | 306° |
| 2026-05-04 16:45 | 49.63160 | -124.52534 | 33930 ft | 424 kts | 306° |
| 2026-05-04 16:46 | 49.70775 | -124.72068 | 33935 ft | 425 kts | 305° |
| 2026-05-04 16:47 | 49.76812 | -124.87659 | 33932 ft | 425 kts | 305° |
| 2026-05-04 16:48 | 49.82866 | -125.03388 | 33930 ft | 425 kts | 305° |
| 2026-05-04 16:49 | 49.88900 | -125.19158 | 33921 ft | 425 kts | 304° |
| 2026-05-04 16:50 | 49.94920 | -125.34987 | 34208 ft | 426 kts | 304° |
| 2026-05-04 16:51 | 49.97902 | -125.42865 | 34774 ft | 424 kts | 304° |
| 2026-05-04 16:51 | 49.99395 | -125.46816 | 35042 ft | 424 kts | 304° |
| 2026-05-04 16:51 | 50.02382 | -125.54744 | 35374 ft | 427 kts | 304° |
| 2026-05-04 16:52 | 50.05378 | -125.62717 | 35845 ft | 426 kts | 304° |
| 2026-05-04 16:52 | 50.06873 | -125.66706 | 35950 ft | 426 kts | 304° |
| 2026-05-04 16:53 | 50.09849 | -125.74664 | 35933 ft | 424 kts | 304° |
| 2026-05-04 16:54 | 50.15784 | -125.90607 | 35933 ft | 425 kts | 304° |
| 2026-05-04 16:55 | 50.24636 | -126.14572 | 35934 ft | 424 kts | 303° |
| 2026-05-04 16:56 | 50.31961 | -126.34574 | 35930 ft | 425 kts | 303° |
| 2026-05-04 16:57 | 50.36348 | -126.46628 | 35943 ft | 424 kts | 303° |
| 2026-05-04 16:58 | 50.42171 | -126.62711 | 35958 ft | 425 kts | 303° |
| 2026-05-04 17:00 | 50.50838 | -126.86844 | 35943 ft | 423 kts | 303° |
| 2026-05-04 17:01 | 50.58011 | -127.06976 | 35940 ft | 423 kts | 302° |
| 2026-05-04 17:02 | 50.63260 | -127.21798 | 35942 ft | 423 kts | 302° |
| 2026-05-04 17:03 | 50.67540 | -127.33948 | 35938 ft | 423 kts | 302° |
| 2026-05-04 17:03 | 50.72447 | -127.45428 | 35942 ft | 420 kts | 308° |
| 2026-05-04 17:04 | 50.79187 | -127.60444 | 35943 ft | 420 kts | 307° |
| 2026-05-04 17:05 | 50.85939 | -127.75552 | 35930 ft | 420 kts | 307° |
| 2026-05-04 17:06 | 50.90973 | -127.86875 | 35921 ft | 420 kts | 307° |
| 2026-05-04 17:07 | 50.95448 | -127.96979 | 35920 ft | 420 kts | 307° |
| 2026-05-04 17:07 | 50.99368 | -128.05864 | 35921 ft | 420 kts | 307° |
| 2026-05-04 17:08 | 51.04396 | -128.17306 | 35922 ft | 420 kts | 307° |
| 2026-05-04 17:09 | 51.07698 | -128.24848 | 35922 ft | 421 kts | 307° |
| 2026-05-04 17:09 | 51.11039 | -128.32498 | 35921 ft | 421 kts | 306° |
| 2026-05-04 17:10 | 51.19371 | -128.51681 | 35926 ft | 421 kts | 306° |
| 2026-05-04 17:11 | 51.22695 | -128.59373 | 35927 ft | 421 kts | 306° |
| 2026-05-04 17:12 | 51.27674 | -128.70939 | 35929 ft | 421 kts | 306° |
| 2026-05-04 17:13 | 51.35928 | -128.90227 | 35932 ft | 421 kts | 306° |
| 2026-05-04 17:14 | 51.42532 | -129.05762 | 35936 ft | 422 kts | 305° |
| 2026-05-04 17:15 | 51.47479 | -129.17460 | 35935 ft | 422 kts | 305° |
| 2026-05-04 17:16 | 51.54033 | -129.33042 | 35939 ft | 422 kts | 305° |
| 2026-05-04 17:17 | 51.60588 | -129.48721 | 35946 ft | 422 kts | 304° |
| 2026-05-04 17:18 | 51.67118 | -129.64433 | 35950 ft | 423 kts | 304° |
| 2026-05-04 17:19 | 51.73644 | -129.80233 | 35956 ft | 423 kts | 304° |
| 2026-05-04 17:20 | 51.80134 | -129.96044 | 35963 ft | 423 kts | 303° |
| 2026-05-04 17:20 | 51.84996 | -130.07950 | 35964 ft | 423 kts | 303° |
| 2026-05-04 17:21 | 51.91437 | -130.23812 | 35963 ft | 422 kts | 303° |
| 2026-05-04 17:22 | 51.94654 | -130.31768 | 35962 ft | 422 kts | 303° |
| 2026-05-04 17:23 | 52.01077 | -130.47733 | 35974 ft | 422 kts | 303° |
| 2026-05-04 17:24 | 52.05855 | -130.59672 | 35976 ft | 422 kts | 302° |
| 2026-05-04 17:25 | 52.12239 | -130.75716 | 35985 ft | 423 kts | 302° |
| 2026-05-04 17:26 | 52.18626 | -130.91864 | 35993 ft | 424 kts | 302° |
| 2026-05-04 17:27 | 52.26570 | -131.12095 | 36011 ft | 425 kts | 302° |
| 2026-05-04 17:28 | 52.32937 | -131.28426 | 36017 ft | 425 kts | 301° |
| 2026-05-04 17:29 | 52.42421 | -131.52948 | 36037 ft | 426 kts | 301° |
| 2026-05-04 17:31 | 52.50309 | -131.73528 | 36035 ft | 426 kts | 301° |
| 2026-05-04 17:32 | 52.58163 | -131.94183 | 36029 ft | 426 kts | 300° |
| 2026-05-04 17:33 | 52.64406 | -132.10724 | 36022 ft | 426 kts | 300° |
| 2026-05-04 17:34 | 52.70649 | -132.27374 | 36021 ft | 427 kts | 300° |
| 2026-05-04 17:35 | 52.78397 | -132.48191 | 36017 ft | 427 kts | 299° |
| 2026-05-04 17:36 | 52.81500 | -132.56575 | 36016 ft | 427 kts | 299° |
| 2026-05-04 17:36 | 52.84592 | -132.64959 | 36016 ft | 427 kts | 299° |
| 2026-05-04 17:37 | 52.87678 | -132.73355 | 36017 ft | 427 kts | 299° |
| 2026-05-04 17:37 | 52.90748 | -132.81734 | 36017 ft | 427 kts | 298° |
| 2026-05-04 17:38 | 52.93828 | -132.90171 | 36016 ft | 427 kts | 298° |
| 2026-05-04 17:38 | 52.96900 | -132.98613 | 36022 ft | 428 kts | 298° |
| 2026-05-04 17:39 | 53.01504 | -133.11318 | 36024 ft | 428 kts | 298° |
| 2026-05-04 17:39 | 53.04566 | -133.19803 | 36024 ft | 428 kts | 298° |
| 2026-05-04 17:40 | 53.07622 | -133.28300 | 36034 ft | 428 kts | 298° |
| 2026-05-04 17:40 | 53.10673 | -133.36815 | 36034 ft | 428 kts | 297° |
| 2026-05-04 17:41 | 53.13718 | -133.45341 | 36038 ft | 428 kts | 297° |
| 2026-05-04 17:41 | 53.16739 | -133.53826 | 36044 ft | 429 kts | 297° |
| 2026-05-04 17:42 | 53.17750 | -133.56673 | 36041 ft | 429 kts | 297° |
| 2026-05-04 17:42 | 53.19999 | -133.63019 | 36046 ft | 429 kts | 297° |
| 2026-05-04 17:43 | 53.23031 | -133.71596 | 36050 ft | 429 kts | 297° |
| 2026-05-04 17:43 | 53.26061 | -133.80199 | 36054 ft | 429 kts | 297° |
| 2026-05-04 17:44 | 53.29080 | -133.88799 | 36059 ft | 429 kts | 297° |
| 2026-05-04 17:44 | 53.32082 | -133.97382 | 36060 ft | 430 kts | 296° |
| 2026-05-04 17:45 | 53.35096 | -134.06031 | 36064 ft | 430 kts | 296° |
| 2026-05-04 17:45 | 53.38103 | -134.14685 | 36070 ft | 430 kts | 296° |
| 2026-05-04 17:46 | 53.41108 | -134.23367 | 36071 ft | 430 kts | 296° |
| 2026-05-04 17:46 | 53.44103 | -134.32050 | 36075 ft | 430 kts | 296° |
| 2026-05-04 17:47 | 53.47097 | -134.40759 | 36076 ft | 430 kts | 296° |
| 2026-05-04 17:47 | 53.50082 | -134.49475 | 36081 ft | 431 kts | 295° |
| 2026-05-04 17:48 | 53.53046 | -134.58160 | 36082 ft | 431 kts | 295° |
| 2026-05-04 17:48 | 53.55541 | -134.65493 | 36084 ft | 431 kts | 295° |
| 2026-05-04 17:49 | 53.58495 | -134.74205 | 36086 ft | 431 kts | 295° |
| 2026-05-04 17:49 | 53.61460 | -134.82981 | 36087 ft | 431 kts | 295° |
| 2026-05-04 17:50 | 53.64427 | -134.91792 | 36093 ft | 431 kts | 295° |
| 2026-05-04 17:50 | 53.67386 | -135.00613 | 36098 ft | 432 kts | 295° |
| 2026-05-04 17:51 | 53.70337 | -135.09439 | 36098 ft | 432 kts | 294° |
| 2026-05-04 17:51 | 53.73268 | -135.18229 | 36101 ft | 432 kts | 294° |
| 2026-05-04 17:52 | 53.76214 | -135.27096 | 36107 ft | 432 kts | 294° |
| 2026-05-04 17:52 | 53.79158 | -135.35987 | 36105 ft | 433 kts | 294° |
| 2026-05-04 17:53 | 53.82096 | -135.44891 | 36108 ft | 433 kts | 294° |
| 2026-05-04 17:53 | 53.85009 | -135.53748 | 36111 ft | 433 kts | 294° |
| 2026-05-04 17:54 | 53.87938 | -135.62684 | 36110 ft | 433 kts | 293° |
| 2026-05-04 17:54 | 53.90862 | -135.71639 | 36117 ft | 434 kts | 293° |
| 2026-05-04 17:55 | 53.93780 | -135.80607 | 36119 ft | 434 kts | 293° |
| 2026-05-04 17:55 | 53.96694 | -135.89595 | 36123 ft | 434 kts | 293° |
| 2026-05-04 17:56 | 53.99664 | -135.98548 | 36112 ft | 439 kts | 300° |
| 2026-05-04 17:56 | 54.01705 | -136.02470 | 36126 ft | 447 kts | 311° |
| 2026-05-04 17:56 | 54.03950 | -136.06045 | 36120 ft | 449 kts | 311° |
| 2026-05-04 17:57 | 54.08555 | -136.13276 | 36128 ft | 450 kts | 311° |
| 2026-05-04 17:57 | 54.13186 | -136.20464 | 36127 ft | 450 kts | 311° |
| 2026-05-04 17:58 | 54.17823 | -136.27665 | 36127 ft | 451 kts | 311° |
| 2026-05-04 17:58 | 54.22434 | -136.34848 | 36128 ft | 451 kts | 311° |
| 2026-05-04 17:59 | 54.27066 | -136.42087 | 36132 ft | 451 kts | 311° |
| 2026-05-04 18:00 | 54.34014 | -136.52988 | 36135 ft | 451 kts | 311° |
| 2026-05-04 18:00 | 54.38643 | -136.60280 | 36140 ft | 452 kts | 311° |
| 2026-05-04 18:01 | 54.43262 | -136.67579 | 36132 ft | 452 kts | 311° |
| 2026-05-04 18:01 | 54.47892 | -136.74921 | 36133 ft | 452 kts | 311° |
| 2026-05-04 18:02 | 54.54825 | -136.85956 | 36140 ft | 453 kts | 311° |
| 2026-05-04 18:02 | 54.59427 | -136.93311 | 36141 ft | 453 kts | 311° |
| 2026-05-04 18:03 | 54.64056 | -137.00733 | 36143 ft | 454 kts | 310° |
| 2026-05-04 18:03 | 54.68655 | -137.08132 | 36146 ft | 454 kts | 310° |
| 2026-05-04 18:04 | 54.73281 | -137.15597 | 36145 ft | 455 kts | 310° |
| 2026-05-04 18:05 | 54.80228 | -137.26855 | 36146 ft | 455 kts | 310° |
| 2026-05-04 18:05 | 54.84852 | -137.34379 | 36145 ft | 456 kts | 310° |
| 2026-05-04 18:06 | 54.91754 | -137.45657 | 36144 ft | 456 kts | 310° |
| 2026-05-04 18:06 | 54.96387 | -137.53258 | 36147 ft | 457 kts | 310° |
| 2026-05-04 18:07 | 55.01011 | -137.60871 | 36153 ft | 457 kts | 310° |
| 2026-05-04 18:07 | 55.05607 | -137.68462 | 36147 ft | 457 kts | 310° |
| 2026-05-04 18:08 | 55.10224 | -137.76112 | 36149 ft | 458 kts | 309° |
| 2026-05-04 18:08 | 55.14843 | -137.83793 | 36154 ft | 458 kts | 309° |
| 2026-05-04 18:09 | 55.24057 | -137.99190 | 36153 ft | 459 kts | 309° |
| 2026-05-04 18:10 | 55.28679 | -138.06954 | 36154 ft | 459 kts | 309° |
| 2026-05-04 18:10 | 55.33295 | -138.14733 | 36154 ft | 460 kts | 309° |
| 2026-05-04 18:11 | 55.37906 | -138.22531 | 36156 ft | 460 kts | 309° |
| 2026-05-04 18:11 | 55.42524 | -138.30366 | 36155 ft | 460 kts | 309° |
| 2026-05-04 18:12 | 55.47135 | -138.38219 | 36149 ft | 461 kts | 309° |
| 2026-05-04 18:12 | 55.51743 | -138.46091 | 36153 ft | 461 kts | 308° |
| 2026-05-04 18:13 | 55.56327 | -138.53951 | 36153 ft | 462 kts | 308° |
| 2026-05-04 18:14 | 55.63243 | -138.65858 | 36155 ft | 463 kts | 308° |
| 2026-05-04 18:14 | 55.67829 | -138.73788 | 36154 ft | 463 kts | 308° |
| 2026-05-04 18:15 | 55.70163 | -138.77835 | 36155 ft | 463 kts | 308° |